createdAt,value
2019-01-15T02:29:29.205Z,15.55
2019-01-15T02:32:18.339Z,11.33
2019-01-15T02:35:07.623Z,17.90
2019-01-15T02:37:56.083Z,11.48
2019-01-15T02:40:45.167Z,10.58
2019-01-15T02:43:34.271Z,10.82
2019-01-15T02:46:23.133Z,16.20
2019-01-15T02:49:11.983Z,13.75
2019-01-15T02:52:00.972Z,18.93
2019-01-15T02:54:49.875Z,18.73
2019-01-15T02:57:38.468Z,22.60
2019-01-15T03:00:27.644Z,8.90
2019-01-15T03:03:15.990Z,16.60
2019-01-15T03:06:04.976Z,9.60
2019-01-15T03:08:53.548Z,10.10
2019-01-15T03:50:57.743Z,11.60
2019-01-15T03:53:46.787Z,17.40
2019-01-15T04:02:13.095Z,14.55
2019-01-15T04:05:02.446Z,13.05
2019-01-15T04:07:52.440Z,12.37
2019-01-15T04:10:41.435Z,10.98
2019-01-15T04:13:29.730Z,11.97
2019-01-15T04:16:18.664Z,11.78
2019-01-15T04:19:07.838Z,16.77
2019-01-15T04:21:56.625Z,12.37
2019-01-15T04:24:45.536Z,10.35
2019-01-15T04:27:34.261Z,12.03
2019-01-15T04:30:23.489Z,8.65
2019-01-15T04:33:12.379Z,12.03
2019-01-15T04:36:01.244Z,9.50
2019-01-15T04:38:50.225Z,7.65
2019-01-15T04:41:39.261Z,18.30
2019-01-15T04:44:28.093Z,9.05
2019-01-15T04:47:17.271Z,11.55
2019-01-15T04:50:09.481Z,14.15
2019-01-15T04:53:00.315Z,9.68
2019-01-15T04:55:49.424Z,9.80
2019-01-15T05:09:50.132Z,14.18
2019-01-15T05:12:39.223Z,9.33
2019-01-15T05:15:27.551Z,10.20
2019-01-15T05:18:16.142Z,8.60
2019-01-15T05:21:05.088Z,8.63
2019-01-15T05:23:54.200Z,10.65
2019-01-15T05:26:42.596Z,8.40
2019-01-15T05:29:31.665Z,11.88
2019-01-15T05:32:20.681Z,11.65
2019-01-15T05:35:09.810Z,11.38
2019-01-15T05:37:58.927Z,7.40
2019-01-15T05:40:47.686Z,11.85
2019-01-15T05:43:36.115Z,12.20
2019-01-15T05:46:25.239Z,16.85
2019-01-15T05:49:14.660Z,12.45
2019-01-15T05:52:03.781Z,10.38
2019-01-15T05:54:52.040Z,5.35
2019-01-15T05:57:41.027Z,8.43
2019-01-15T06:00:30.014Z,8.90
2019-01-15T06:03:18.966Z,9.28
2019-01-15T06:06:07.969Z,18.20
2019-01-15T06:08:56.533Z,8.78
2019-01-15T06:11:45.552Z,11.25
2019-01-15T06:14:33.913Z,3.77
2019-01-15T06:17:23.061Z,11.88
2019-01-15T06:20:18.252Z,9.40
2019-01-15T06:23:06.574Z,7.28
2019-01-15T06:25:56.854Z,6.00
2019-01-15T06:28:46.176Z,6.25
2019-01-15T06:31:35.114Z,8.80
2019-01-15T06:34:24.023Z,12.47
2019-01-15T06:37:12.909Z,10.15
2019-01-15T06:40:02.050Z,6.42
2019-01-15T06:42:50.944Z,10.08
2019-01-15T06:45:39.822Z,7.75
2019-01-15T06:48:29.054Z,11.88
2019-01-15T06:51:17.917Z,6.67
2019-01-15T06:54:06.940Z,11.43
2019-01-15T06:56:55.767Z,10.55
2019-01-15T06:59:44.471Z,15.85
2019-01-15T07:02:33.185Z,17.60
2019-01-15T07:05:22.175Z,10.55
2019-01-15T07:08:11.242Z,11.93
2019-01-15T07:10:59.888Z,11.57
2019-01-15T07:13:49.120Z,16.20
2019-01-15T07:16:38.102Z,10.85
2019-01-15T07:19:26.928Z,10.30
2019-01-15T07:22:16.090Z,11.10
2019-01-15T07:25:08.827Z,17.70
2019-01-15T07:27:57.971Z,12.65
2019-01-15T07:30:49.525Z,13.78
2019-01-15T07:33:38.755Z,20.20
2019-01-15T07:36:28.141Z,12.90
2019-01-15T07:39:16.831Z,13.00
2019-01-15T07:42:05.755Z,14.75
2019-01-15T07:44:54.488Z,11.43
2019-01-15T07:47:43.029Z,11.55
2019-01-15T07:50:31.930Z,8.45
2019-01-15T07:53:20.843Z,14.00
2019-01-15T07:56:10.020Z,13.83
2019-01-15T07:58:58.362Z,8.88
2019-01-15T08:01:47.537Z,12.58
2019-01-15T08:04:36.560Z,15.78
2019-01-15T08:07:25.200Z,14.28
2019-01-15T08:10:16.967Z,14.90
2019-01-15T08:13:06.248Z,18.73
2019-01-15T08:15:56.439Z,12.80
2019-01-15T08:18:45.516Z,9.45
2019-01-15T08:21:34.754Z,12.45
2019-01-15T08:24:23.915Z,12.73
2019-01-15T08:27:12.950Z,9.45
2019-01-15T08:30:01.918Z,14.40
2019-01-15T08:32:50.988Z,15.03
2019-01-15T08:35:39.446Z,20.95
2019-01-15T08:38:28.413Z,25.00
2019-01-15T08:41:16.811Z,16.85
2019-01-15T08:44:05.421Z,16.37
2019-01-15T08:46:54.616Z,13.48
2019-01-15T08:49:43.493Z,15.63
2019-01-15T08:52:32.158Z,10.15
2019-01-15T08:55:20.807Z,16.95
2019-01-15T08:58:09.390Z,11.78
2019-01-15T09:00:58.096Z,12.88
2019-01-15T09:03:46.723Z,17.55
2019-01-15T09:06:36.022Z,10.78
2019-01-15T09:09:25.184Z,17.55
2019-01-15T09:12:14.250Z,15.43
2019-01-15T09:15:02.467Z,14.65
2019-01-15T09:17:51.552Z,16.40
2019-01-15T09:20:40.306Z,16.97
2019-01-15T09:23:28.988Z,14.78
2019-01-15T09:26:17.665Z,18.82
2019-01-15T09:29:06.389Z,11.63
2019-01-15T09:31:55.245Z,20.82
2019-01-15T09:34:44.515Z,11.38
2019-01-15T09:37:34.169Z,18.00
2019-01-15T09:40:24.323Z,13.95
2019-01-15T09:43:12.652Z,14.55
2019-01-15T09:46:00.995Z,16.37
2019-01-15T09:48:50.036Z,18.50
2019-01-15T09:51:39.114Z,20.97
2019-01-15T09:54:27.993Z,13.45
2019-01-15T09:57:16.364Z,20.23
2019-01-15T10:00:12.582Z,26.65
2019-01-15T10:03:01.536Z,17.12
2019-01-15T10:05:49.820Z,19.00
2019-01-15T10:08:38.771Z,18.45
2019-01-15T10:11:27.678Z,16.02
2019-01-15T10:14:16.584Z,20.62
2019-01-15T10:17:05.483Z,16.57
2019-01-15T10:19:54.461Z,23.92
2019-01-15T10:22:43.330Z,25.90
2019-01-15T10:25:32.362Z,17.77
2019-01-15T10:28:21.166Z,28.45
2019-01-15T10:31:29.401Z,19.12
2019-01-15T10:34:19.808Z,23.02
2019-01-15T10:37:06.682Z,27.30
2019-01-15T10:39:55.855Z,19.30
2019-01-15T10:42:44.683Z,19.82
2019-01-15T10:45:33.742Z,19.07
2019-01-15T10:48:23.003Z,20.48
2019-01-15T10:51:12.188Z,25.00
2019-01-15T10:54:00.956Z,19.52
2019-01-15T10:56:49.340Z,27.87
2019-01-15T10:59:38.088Z,21.57
2019-01-15T11:02:26.917Z,21.48
2019-01-15T11:05:15.987Z,19.15
2019-01-15T11:08:04.577Z,23.45
2019-01-15T11:10:53.585Z,26.10
2019-01-15T11:13:42.019Z,16.20
2019-01-15T11:16:31.067Z,19.50
2019-01-15T11:19:19.786Z,27.52
2019-01-15T11:22:08.851Z,14.63
2019-01-15T11:24:57.552Z,16.45
2019-01-15T11:27:46.679Z,17.62
2019-01-15T11:30:35.583Z,16.27
2019-01-15T11:33:24.175Z,17.37
2019-01-15T11:36:13.165Z,16.40
2019-01-15T11:39:02.224Z,17.77
2019-01-15T11:41:51.240Z,15.60
2019-01-15T11:44:40.036Z,19.55
2019-01-15T11:47:29.155Z,14.55
2019-01-15T11:50:23.905Z,18.25
2019-01-15T11:53:12.714Z,14.30
2019-01-15T11:56:01.502Z,14.20
2019-01-15T11:58:51.510Z,14.53
2019-01-15T12:01:41.691Z,17.30
2019-01-15T12:04:47.871Z,11.08
2019-01-15T12:07:38.338Z,12.78
2019-01-15T12:10:44.597Z,15.60
2019-01-15T12:13:38.895Z,10.88
2019-01-15T12:16:42.726Z,18.70
2019-01-15T12:19:36.430Z,13.98
2019-01-15T12:22:35.536Z,15.95
2019-01-15T12:25:26.297Z,12.15
2019-01-15T12:28:25.170Z,11.97
2019-01-15T12:31:21.899Z,12.25
2019-01-15T12:34:18.569Z,9.15
2019-01-15T12:37:25.141Z,10.08
2019-01-15T12:40:18.928Z,12.00
2019-01-15T12:43:12.062Z,11.03
2019-01-15T12:46:14.099Z,6.72
2019-01-15T12:49:07.285Z,10.45
2019-01-15T12:52:10.282Z,9.98
2019-01-15T12:55:02.964Z,9.83
2019-01-15T12:58:05.478Z,8.30
2019-01-15T13:01:11.943Z,9.45
2019-01-15T13:04:04.849Z,11.45
2019-01-15T13:07:03.119Z,10.98
2019-01-15T13:09:59.534Z,8.63
2019-01-15T13:12:49.693Z,11.15
2019-01-15T13:15:52.295Z,12.53
2019-01-15T13:18:42.463Z,9.15
2019-01-15T13:21:36.181Z,11.20
2019-01-15T13:24:32.359Z,7.30
2019-01-15T13:27:28.624Z,10.23
2019-01-15T13:30:19.313Z,9.78
2019-01-15T13:33:10.630Z,11.68
2019-01-15T13:36:07.730Z,10.58
2019-01-15T13:39:06.883Z,6.08
2019-01-15T13:42:05.887Z,7.62
2019-01-15T13:44:56.166Z,7.55
2019-01-15T13:47:55.636Z,6.22
2019-01-15T13:50:45.620Z,6.12
2019-01-15T13:53:36.118Z,9.60
2019-01-15T13:56:29.434Z,10.08
2019-01-15T13:59:25.272Z,12.75
2019-01-15T14:02:30.489Z,9.35
2019-01-15T14:05:23.443Z,13.22
2019-01-15T14:08:19.496Z,9.20
2019-01-15T14:11:12.554Z,12.07
2019-01-15T14:14:14.878Z,5.65
2019-01-15T14:17:10.959Z,13.55
2019-01-15T14:20:01.306Z,9.93
2019-01-15T14:23:06.649Z,7.62
2019-01-15T14:26:00.127Z,10.30
2019-01-15T14:28:56.120Z,6.70
2019-01-15T14:31:51.947Z,7.65
2019-01-15T14:34:43.711Z,10.13
2019-01-15T14:37:37.505Z,8.98
2019-01-15T14:40:43.557Z,7.17
2019-01-15T14:43:33.738Z,8.03
2019-01-15T14:46:35.511Z,9.40
2019-01-15T14:49:31.742Z,9.45
2019-01-15T14:52:30.034Z,8.70
2019-01-15T14:55:20.851Z,8.60
2019-01-15T14:58:13.496Z,8.80
2019-01-15T15:01:20.083Z,10.30
2019-01-15T15:04:10.619Z,11.75
2019-01-15T15:07:16.733Z,10.15
2019-01-15T15:10:20.359Z,10.60
2019-01-15T15:13:25.708Z,8.08
2019-01-15T15:16:16.206Z,8.83
2019-01-15T15:19:09.702Z,11.85
2019-01-15T15:22:16.087Z,11.05
2019-01-15T15:25:09.899Z,10.15
2019-01-15T15:28:05.982Z,13.13
2019-01-15T15:31:02.047Z,8.23
2019-01-15T15:34:08.209Z,11.15
2019-01-15T15:37:10.617Z,10.78
2019-01-15T15:40:15.739Z,9.08
2019-01-15T15:43:09.062Z,5.22
2019-01-15T15:46:11.480Z,6.37
2019-01-15T15:49:01.698Z,7.78
2019-01-15T15:52:06.937Z,7.40
2019-01-15T15:54:58.413Z,4.28
2019-01-15T15:58:04.973Z,5.67
2019-01-15T16:00:55.560Z,7.15
2019-01-15T16:03:52.020Z,11.57
2019-01-15T16:06:48.545Z,9.20
2019-01-15T16:09:44.555Z,6.85
2019-01-15T16:12:40.454Z,11.70
2019-01-15T16:15:30.622Z,7.25
2019-01-15T16:18:26.976Z,7.45
2019-01-15T16:21:17.213Z,10.03
2019-01-15T16:24:10.736Z,8.88
2019-01-15T16:27:16.974Z,4.67
2019-01-15T16:30:29.650Z,6.22
2019-01-15T16:33:22.421Z,10.10
2019-01-15T16:36:14.679Z,6.90
2019-01-15T16:39:09.652Z,5.15
2019-01-15T16:42:08.237Z,9.33
2019-01-15T16:45:07.893Z,6.22
2019-01-15T16:47:58.668Z,7.10
2019-01-15T16:50:51.542Z,8.93
2019-01-15T16:53:42.293Z,15.98
2019-01-15T16:56:34.865Z,7.40
2019-01-15T16:59:34.215Z,11.15
2019-01-15T17:02:33.622Z,11.10
2019-01-15T17:05:26.868Z,19.02
2019-01-15T17:08:17.431Z,12.18
2019-01-15T17:11:08.054Z,13.93
2019-01-15T17:13:58.113Z,16.80
2019-01-15T17:16:48.921Z,20.20
2019-01-15T17:19:45.325Z,29.87
2019-01-15T17:22:51.918Z,17.73
2019-01-15T17:25:41.976Z,17.55
2019-01-15T17:28:44.197Z,27.20
2019-01-15T17:31:43.875Z,22.45
2019-01-15T17:34:36.901Z,15.68
2019-01-15T17:37:32.527Z,18.07
2019-01-15T17:40:22.609Z,22.77
2019-01-15T17:43:19.106Z,16.95
2019-01-15T17:46:09.520Z,15.68
2019-01-15T17:49:00.130Z,10.93
2019-01-15T17:51:59.066Z,15.40
2019-01-15T17:54:57.981Z,12.18
2019-01-15T17:57:54.681Z,18.42
2019-01-15T18:01:00.530Z,19.10
2019-01-15T18:04:07.025Z,12.28
2019-01-15T18:06:57.694Z,20.30
2019-01-15T18:09:54.198Z,11.60
2019-01-15T18:12:53.722Z,16.15
2019-01-15T18:15:44.319Z,13.70
2019-01-15T18:18:41.091Z,14.07
2019-01-15T18:21:33.933Z,15.90
2019-01-15T18:24:24.802Z,26.02
2019-01-15T18:27:15.309Z,18.73
2019-01-15T18:30:16.875Z,16.37
2019-01-15T18:33:25.418Z,20.43
2019-01-15T18:36:24.131Z,15.98
2019-01-15T18:39:30.718Z,18.57
2019-01-15T18:42:24.406Z,19.52
2019-01-15T18:45:20.935Z,16.10
2019-01-15T18:48:21.541Z,17.15
2019-01-15T18:51:27.949Z,15.35
2019-01-15T18:54:33.866Z,27.87
2019-01-15T18:57:23.791Z,19.62
2019-01-15T19:00:26.992Z,15.75
2019-01-15T19:03:32.877Z,12.95
2019-01-15T19:06:22.908Z,19.25
2019-01-15T19:09:26.115Z,13.98
2019-01-15T19:12:31.322Z,11.12
2019-01-15T19:15:19.893Z,13.25
2019-01-15T19:18:13.652Z,13.83
2019-01-15T19:21:04.228Z,15.55
2019-01-15T19:24:00.630Z,10.85
2019-01-15T19:27:03.231Z,15.25
2019-01-15T19:30:02.596Z,13.65
2019-01-15T19:33:10.779Z,10.15
2019-01-15T19:36:06.668Z,14.65
2019-01-15T19:39:11.759Z,12.60
2019-01-15T19:42:00.305Z,14.33
2019-01-15T19:44:49.106Z,16.02
2019-01-15T19:47:37.382Z,14.20
2019-01-15T19:50:27.406Z,11.30
2019-01-15T19:53:23.599Z,11.25
2019-01-15T19:56:24.135Z,14.90
2019-01-15T19:59:17.096Z,8.23
2019-01-15T20:02:07.966Z,11.48
2019-01-15T20:05:08.206Z,9.45
2019-01-15T20:07:58.656Z,10.75
2019-01-15T20:10:55.091Z,11.20
2019-01-15T20:13:50.914Z,12.13
2019-01-15T20:16:44.316Z,14.98
2019-01-15T20:19:33.273Z,12.90
2019-01-15T20:22:40.119Z,9.93
2019-01-15T20:25:32.808Z,8.60
2019-01-15T20:28:28.916Z,8.00
2019-01-15T20:31:21.300Z,11.05
2019-01-15T20:34:14.428Z,15.68
2019-01-15T20:37:04.808Z,26.85
2019-01-15T20:40:03.657Z,12.28
2019-01-15T20:43:03.514Z,9.13
2019-01-15T20:45:59.783Z,5.37
2019-01-15T20:48:51.165Z,10.75
2019-01-15T20:51:43.983Z,6.37
2019-01-15T20:54:34.137Z,6.47
2019-01-15T20:57:42.295Z,9.05
2019-01-15T21:00:47.670Z,5.25
2019-01-15T21:03:41.124Z,5.42
2019-01-15T21:06:31.322Z,5.90
2019-01-15T21:09:37.499Z,4.90
2019-01-15T21:12:30.368Z,5.15
2019-01-15T21:15:36.668Z,13.70
2019-01-15T21:18:29.272Z,5.97
2019-01-15T21:21:25.405Z,6.15
2019-01-15T21:24:21.399Z,9.15
2019-01-15T21:27:27.687Z,9.68
2019-01-15T21:30:36.205Z,16.45
2019-01-15T21:33:37.794Z,9.58
2019-01-15T21:36:27.976Z,13.70
2019-01-15T21:39:34.463Z,16.30
2019-01-15T21:42:27.429Z,19.30
2019-01-15T21:45:17.438Z,23.85
2019-01-15T21:48:07.877Z,28.57
2019-01-15T21:51:04.668Z,37.28
2019-01-15T21:54:13.186Z,31.95
2019-01-15T21:57:05.991Z,38.02
2019-01-15T22:00:02.097Z,44.18
2019-01-15T22:02:52.929Z,29.25
2019-01-15T22:05:41.044Z,34.53
2019-01-15T22:08:37.554Z,26.62
2019-01-15T22:11:28.503Z,35.48
2019-01-15T22:14:18.601Z,31.70
2019-01-15T22:17:08.774Z,27.20
2019-01-15T22:19:57.211Z,32.55
2019-01-15T22:22:55.957Z,36.35
2019-01-15T22:25:55.621Z,32.25
2019-01-15T22:28:51.280Z,34.18
2019-01-15T22:31:43.900Z,25.88
2019-01-15T22:34:35.200Z,34.60
2019-01-15T22:37:37.236Z,33.30
2019-01-15T22:40:30.672Z,33.42
2019-01-15T22:43:21.261Z,29.45
2019-01-15T22:46:25.969Z,25.82
2019-01-15T22:49:31.866Z,31.37
2019-01-15T22:52:34.237Z,27.75
2019-01-15T22:55:36.693Z,29.05
2019-01-15T22:58:26.845Z,18.50
2019-01-15T23:01:27.571Z,31.80
2019-01-15T23:04:32.610Z,31.70
2019-01-15T23:07:23.333Z,29.07
2019-01-15T23:10:13.985Z,30.72
2019-01-15T23:13:13.324Z,31.10
2019-01-15T23:16:06.279Z,28.55
2019-01-15T23:18:59.109Z,29.65
2019-01-15T23:21:52.319Z,21.95
2019-01-15T23:24:45.717Z,37.05
2019-01-15T23:27:36.094Z,24.87
2019-01-15T23:30:39.363Z,33.10
2019-01-15T23:33:35.955Z,37.17
2019-01-15T23:36:44.480Z,27.87
2019-01-15T23:39:41.787Z,26.60
2019-01-15T23:42:37.990Z,28.10
2019-01-15T23:45:26.125Z,35.85
2019-01-15T23:48:19.760Z,25.37
2019-01-15T23:51:19.234Z,22.42
2019-01-15T23:54:12.261Z,25.52
2019-01-15T23:57:10.644Z,30.68
